sensor_id;sensor_type;location;lat;lon;timestamp;pressure;altitude;pressure_sealevel;temperature;humidity
51083;BME280;37131;42.694;23.350;2023-03-14T00:01:48;95749.72;;;2.85;51.46
51083;BME280;37131;42.694;23.350;2023-03-14T00:04:14;95745.09;;;2.56;52.61
51083;BME280;37131;42.694;23.350;2023-03-14T00:06:39;95741.06;;;2.61;52.25
51083;BME280;37131;42.694;23.350;2023-03-14T00:09:04;95738.78;;;2.75;52.24
51083;BME280;37131;42.694;23.350;2023-03-14T00:11:30;95739.41;;;2.69;52.23
51083;BME280;37131;42.694;23.350;2023-03-14T00:13:56;95733.81;;;2.73;52.82
51083;BME280;37131;42.694;23.350;2023-03-14T00:16:21;95728.97;;;2.62;52.74
51083;BME280;37131;42.694;23.350;2023-03-14T00:18:46;95725.94;;;2.34;53.96
51083;BME280;37131;42.694;23.350;2023-03-14T00:21:12;95731.25;;;2.32;54.08
51083;BME280;37131;42.694;23.350;2023-03-14T00:23:37;95720.28;;;2.30;54.44
51083;BME280;37131;42.694;23.350;2023-03-14T00:26:08;95714.19;;;2.39;54.23
51083;BME280;37131;42.694;23.350;2023-03-14T00:28:33;95708.88;;;2.49;54.79
51083;BME280;37131;42.694;23.350;2023-03-14T00:31:01;95709.69;;;2.33;54.66
51083;BME280;37131;42.694;23.350;2023-03-14T00:33:26;95704.06;;;2.30;54.83
51083;BME280;37131;42.694;23.350;2023-03-14T00:35:55;95696.34;;;2.46;54.23
51083;BME280;37131;42.694;23.350;2023-03-14T00:38:21;95701.81;;;2.43;54.51
51083;BME280;37131;42.694;23.350;2023-03-14T00:40:46;95703.09;;;2.47;54.88
51083;BME280;37131;42.694;23.350;2023-03-14T00:43:11;95695.19;;;2.40;56.18
51083;BME280;37131;42.694;23.350;2023-03-14T00:45:37;95692.78;;;2.55;54.96
51083;BME280;37131;42.694;23.350;2023-03-14T00:48:02;95692.16;;;2.12;55.76
51083;BME280;37131;42.694;23.350;2023-03-14T00:50:27;95690.88;;;2.16;56.99
51083;BME280;37131;42.694;23.350;2023-03-14T00:52:52;95688.13;;;2.18;56.71
51083;BME280;37131;42.694;23.350;2023-03-14T00:55:18;95687.81;;;2.04;57.22
51083;BME280;37131;42.694;23.350;2023-03-14T00:57:43;95687.16;;;2.10;56.66
51083;BME280;37131;42.694;23.350;2023-03-14T01:00:08;95681.69;;;2.14;56.01
51083;BME280;37131;42.694;23.350;2023-03-14T01:02:36;95684.13;;;2.15;56.33
51083;BME280;37131;42.694;23.350;2023-03-14T01:05:02;95680.09;;;2.37;55.43
51083;BME280;37131;42.694;23.350;2023-03-14T01:07:27;95674.31;;;2.35;55.63
51083;BME280;37131;42.694;23.350;2023-03-14T01:09:52;95681.22;;;2.18;55.85
51083;BME280;37131;42.694;23.350;2023-03-14T01:12:18;95672.38;;;2.21;56.86
51083;BME280;37131;42.694;23.350;2023-03-14T01:14:43;95673.69;;;2.08;56.80
51083;BME280;37131;42.694;23.350;2023-03-14T01:17:08;95668.84;;;2.05;57.43
51083;BME280;37131;42.694;23.350;2023-03-14T01:19:33;95660.63;;;2.18;57.05
51083;BME280;37131;42.694;23.350;2023-03-14T01:21:59;95666.09;;;1.99;56.74
51083;BME280;37131;42.694;23.350;2023-03-14T01:24:24;95657.09;;;1.95;57.10
51083;BME280;37131;42.694;23.350;2023-03-14T01:26:49;95657.13;;;2.03;57.55
51083;BME280;37131;42.694;23.350;2023-03-14T01:29:14;95658.41;;;2.07;57.41
51083;BME280;37131;42.694;23.350;2023-03-14T01:31:40;95655.81;;;1.99;59.10
51083;BME280;37131;42.694;23.350;2023-03-14T01:34:05;95645.84;;;2.12;57.89
51083;BME280;37131;42.694;23.350;2023-03-14T01:36:30;95648.72;;;2.01;57.01
51083;BME280;37131;42.694;23.350;2023-03-14T01:38:55;95648.41;;;1.87;57.47
51083;BME280;37131;42.694;23.350;2023-03-14T01:41:22;95640.88;;;2.19;56.63
51083;BME280;37131;42.694;23.350;2023-03-14T01:43:47;95639.41;;;2.08;57.33
51083;BME280;37131;42.694;23.350;2023-03-14T01:48:39;95638.94;;;2.13;56.93
51083;BME280;37131;42.694;23.350;2023-03-14T01:51:09;95631.22;;;2.21;55.97
51083;BME280;37131;42.694;23.350;2023-03-14T01:53:36;95631.22;;;1.96;58.18
51083;BME280;37131;42.694;23.350;2023-03-14T01:56:02;95627.53;;;1.99;58.19
51083;BME280;37131;42.694;23.350;2023-03-14T01:58:28;95625.59;;;1.92;60.54
51083;BME280;37131;42.694;23.350;2023-03-14T02:00:56;95626.09;;;1.88;60.79
51083;BME280;37131;42.694;23.350;2023-03-14T02:03:22;95630.56;;;1.86;59.77
51083;BME280;37131;42.694;23.350;2023-03-14T02:05:49;95635.06;;;1.75;60.29
51083;BME280;37131;42.694;23.350;2023-03-14T02:08:16;95629.59;;;1.79;60.06
51083;BME280;37131;42.694;23.350;2023-03-14T02:10:44;95628.81;;;1.70;61.25
51083;BME280;37131;42.694;23.350;2023-03-14T02:13:09;95625.28;;;1.79;60.04
51083;BME280;37131;42.694;23.350;2023-03-14T02:15:35;95629.94;;;1.67;60.63
51083;BME280;37131;42.694;23.350;2023-03-14T02:18:01;95629.25;;;1.65;62.23
51083;BME280;37131;42.694;23.350;2023-03-14T02:20:34;95624.75;;;1.51;62.97
51083;BME280;37131;42.694;23.350;2023-03-14T02:23:04;95623.28;;;1.32;63.70
51083;BME280;37131;42.694;23.350;2023-03-14T02:25:39;95622.28;;;1.25;65.38
51083;BME280;37131;42.694;23.350;2023-03-14T02:28:06;95615.50;;;1.07;65.78
51083;BME280;37131;42.694;23.350;2023-03-14T02:30:32;95618.38;;;1.04;67.14
51083;BME280;37131;42.694;23.350;2023-03-14T02:35:31;95616.22;;;0.91;64.10
51083;BME280;37131;42.694;23.350;2023-03-14T02:40:22;95629.63;;;0.68;65.15
51083;BME280;37131;42.694;23.350;2023-03-14T02:42:48;95638.72;;;0.63;65.79
51083;BME280;37131;42.694;23.350;2023-03-14T02:47:39;95635.22;;;0.72;65.97
51083;BME280;37131;42.694;23.350;2023-03-14T02:50:17;95640.66;;;0.69;67.87
51083;BME280;37131;42.694;23.350;2023-03-14T02:52:44;95634.84;;;0.59;67.79
51083;BME280;37131;42.694;23.350;2023-03-14T02:55:09;95634.06;;;0.66;67.18
51083;BME280;37131;42.694;23.350;2023-03-14T02:57:35;95643.84;;;0.63;66.60
51083;BME280;37131;42.694;23.350;2023-03-14T03:00:00;95640.81;;;0.59;66.01
51083;BME280;37131;42.694;23.350;2023-03-14T03:02:26;95639.34;;;0.57;68.31
51083;BME280;37131;42.694;23.350;2023-03-14T03:04:52;95640.25;;;0.47;68.89
51083;BME280;37131;42.694;23.350;2023-03-14T03:07:17;95646.19;;;0.48;70.37
51083;BME280;37131;42.694;23.350;2023-03-14T03:09:44;95649.81;;;0.37;69.32
51083;BME280;37131;42.694;23.350;2023-03-14T03:12:09;95649.59;;;0.30;69.91
51083;BME280;37131;42.694;23.350;2023-03-14T03:14:34;95645.84;;;0.25;70.78
51083;BME280;37131;42.694;23.350;2023-03-14T03:16:59;95639.41;;;0.21;70.43
51083;BME280;37131;42.694;23.350;2023-03-14T03:19:25;95634.44;;;0.19;72.94
51083;BME280;37131;42.694;23.350;2023-03-14T03:21:50;95639.06;;;0.15;72.73
51083;BME280;37131;42.694;23.350;2023-03-14T03:24:15;95641.00;;;0.13;73.32
51083;BME280;37131;42.694;23.350;2023-03-14T03:26:40;95641.56;;;0.07;71.80
51083;BME280;37131;42.694;23.350;2023-03-14T03:29:06;95640.63;;;0.08;73.15
51083;BME280;37131;42.694;23.350;2023-03-14T03:31:31;95637.69;;;0.03;75.42
51083;BME280;37131;42.694;23.350;2023-03-14T03:33:56;95643.69;;;-0.06;75.96
51083;BME280;37131;42.694;23.350;2023-03-14T03:36:22;95638.06;;;-0.10;77.00
51083;BME280;37131;42.694;23.350;2023-03-14T03:38:48;95633.53;;;-0.16;77.21
51083;BME280;37131;42.694;23.350;2023-03-14T03:41:13;95635.13;;;-0.15;77.96
51083;BME280;37131;42.694;23.350;2023-03-14T03:43:39;95637.19;;;-0.19;78.50
51083;BME280;37131;42.694;23.350;2023-03-14T03:46:04;95633.84;;;-0.19;78.69
51083;BME280;37131;42.694;23.350;2023-03-14T03:48:30;95642.63;;;-0.22;78.28
51083;BME280;37131;42.694;23.350;2023-03-14T03:50:55;95611.06;;;-0.40;78.89
51083;BME280;37131;42.694;23.350;2023-03-14T03:53:20;95651.09;;;-0.21;77.38
51083;BME280;37131;42.694;23.350;2023-03-14T03:55:45;95646.13;;;-0.23;77.53
51083;BME280;37131;42.694;23.350;2023-03-14T03:58:11;95654.34;;;-0.19;77.82
51083;BME280;37131;42.694;23.350;2023-03-14T04:00:36;95644.38;;;-0.22;79.78
51083;BME280;37131;42.694;23.350;2023-03-14T04:03:01;95658.16;;;-0.23;79.70
51083;BME280;37131;42.694;23.350;2023-03-14T04:05:27;95647.06;;;-0.24;80.10
51083;BME280;37131;42.694;23.350;2023-03-14T04:07:52;95647.66;;;-0.30;80.41
51083;BME280;37131;42.694;23.350;2023-03-14T04:10:17;95643.38;;;-0.29;80.04
51083;BME280;37131;42.694;23.350;2023-03-14T04:12:42;95647.50;;;-0.28;80.58
51083;BME280;37131;42.694;23.350;2023-03-14T04:15:08;95646.78;;;-0.39;80.39
51083;BME280;37131;42.694;23.350;2023-03-14T04:17:33;95639.81;;;-0.28;79.88
51083;BME280;37131;42.694;23.350;2023-03-14T04:19:58;95648.91;;;-0.34;80.05
51083;BME280;37131;42.694;23.350;2023-03-14T04:22:24;95632.22;;;-0.38;80.37
51083;BME280;37131;42.694;23.350;2023-03-14T04:24:49;95628.63;;;-0.45;81.28
51083;BME280;37131;42.694;23.350;2023-03-14T04:27:14;95628.09;;;-0.49;80.66
51083;BME280;37131;42.694;23.350;2023-03-14T04:29:40;95619.47;;;-0.48;81.44
51083;BME280;37131;42.694;23.350;2023-03-14T04:32:05;95624.50;;;-0.56;79.45
51083;BME280;37131;42.694;23.350;2023-03-14T04:34:30;95624.75;;;-0.49;80.30
51083;BME280;37131;42.694;23.350;2023-03-14T04:36:56;95620.00;;;-0.44;81.09
51083;BME280;37131;42.694;23.350;2023-03-14T04:39:21;95612.03;;;-0.41;81.45
51083;BME280;37131;42.694;23.350;2023-03-14T04:41:46;95610.19;;;-0.31;79.96
51083;BME280;37131;42.694;23.350;2023-03-14T04:44:11;95605.94;;;-0.40;80.93
51083;BME280;37131;42.694;23.350;2023-03-14T04:46:37;95602.72;;;-0.42;81.03
51083;BME280;37131;42.694;23.350;2023-03-14T04:49:02;95602.88;;;-0.44;79.50
51083;BME280;37131;42.694;23.350;2023-03-14T04:51:27;95605.59;;;-0.45;79.19
51083;BME280;37131;42.694;23.350;2023-03-14T04:53:53;95596.13;;;-0.45;78.79
51083;BME280;37131;42.694;23.350;2023-03-14T04:56:19;95596.66;;;-0.41;79.98
51083;BME280;37131;42.694;23.350;2023-03-14T04:58:44;95598.25;;;-0.40;80.07
51083;BME280;37131;42.694;23.350;2023-03-14T05:01:09;95593.13;;;-0.40;79.22
51083;BME280;37131;42.694;23.350;2023-03-14T05:03:35;95594.28;;;-0.34;79.27
51083;BME280;37131;42.694;23.350;2023-03-14T05:06:03;95602.78;;;-0.34;79.84
51083;BME280;37131;42.694;23.350;2023-03-14T05:08:29;95597.81;;;-0.36;79.02
51083;BME280;37131;42.694;23.350;2023-03-14T05:10:55;95601.38;;;-0.28;79.08
51083;BME280;37131;42.694;23.350;2023-03-14T05:13:20;95595.09;;;-0.34;77.15
51083;BME280;37131;42.694;23.350;2023-03-14T05:15:46;95596.94;;;-0.26;78.31
51083;BME280;37131;42.694;23.350;2023-03-14T05:18:11;95597.44;;;-0.23;80.10
51083;BME280;37131;42.694;23.350;2023-03-14T05:20:36;95594.22;;;-0.25;78.38
51083;BME280;37131;42.694;23.350;2023-03-14T05:23:02;95597.00;;;-0.18;78.42
51083;BME280;37131;42.694;23.350;2023-03-14T05:25:27;95589.69;;;-0.13;78.56
51083;BME280;37131;42.694;23.350;2023-03-14T05:27:55;95591.72;;;0.02;78.77
51083;BME280;37131;42.694;23.350;2023-03-14T05:30:21;95587.06;;;0.05;80.32
51083;BME280;37131;42.694;23.350;2023-03-14T05:32:46;95589.19;;;0.10;79.32
51083;BME280;37131;42.694;23.350;2023-03-14T05:35:12;95585.28;;;0.24;78.09
51083;BME280;37131;42.694;23.350;2023-03-14T05:37:37;95589.50;;;0.33;76.82
51083;BME280;37131;42.694;23.350;2023-03-14T05:40:03;95587.25;;;0.38;75.65
51083;BME280;37131;42.694;23.350;2023-03-14T05:42:31;95587.34;;;0.55;74.85
51083;BME280;37131;42.694;23.350;2023-03-14T05:44:56;95587.97;;;0.48;74.28
51083;BME280;37131;42.694;23.350;2023-03-14T05:47:21;95590.22;;;0.51;74.50
51083;BME280;37131;42.694;23.350;2023-03-14T05:49:47;95585.91;;;0.52;74.86
51083;BME280;37131;42.694;23.350;2023-03-14T05:52:12;95588.78;;;0.49;74.24
51083;BME280;37131;42.694;23.350;2023-03-14T05:54:37;95589.44;;;0.51;74.31
51083;BME280;37131;42.694;23.350;2023-03-14T05:57:02;95587.22;;;0.56;75.10
51083;BME280;37131;42.694;23.350;2023-03-14T05:59:28;95588.72;;;0.67;75.47
51083;BME280;37131;42.694;23.350;2023-03-14T06:01:53;95591.28;;;0.75;75.05
51083;BME280;37131;42.694;23.350;2023-03-14T06:04:18;95591.81;;;0.79;74.89
51083;BME280;37131;42.694;23.350;2023-03-14T06:06:43;95578.31;;;0.77;74.84
51083;BME280;37131;42.694;23.350;2023-03-14T06:09:09;95584.44;;;0.84;75.30
51083;BME280;37131;42.694;23.350;2023-03-14T06:11:34;95585.09;;;0.86;76.03
51083;BME280;37131;42.694;23.350;2023-03-14T06:13:59;95581.56;;;0.87;75.59
51083;BME280;37131;42.694;23.350;2023-03-14T06:16:24;95580.13;;;0.93;73.98
51083;BME280;37131;42.694;23.350;2023-03-14T06:18:50;95579.06;;;1.03;73.67
51083;BME280;37131;42.694;23.350;2023-03-14T06:21:17;95583.00;;;0.90;72.85
51083;BME280;37131;42.694;23.350;2023-03-14T06:23:42;95589.09;;;0.88;73.27
51083;BME280;37131;42.694;23.350;2023-03-14T06:26:07;95590.13;;;1.04;73.02
51083;BME280;37131;42.694;23.350;2023-03-14T06:28:33;95590.16;;;1.12;72.38
51083;BME280;37131;42.694;23.350;2023-03-14T06:30:58;95590.53;;;1.42;72.00
51083;BME280;37131;42.694;23.350;2023-03-14T06:33:24;95591.34;;;1.43;72.33
51083;BME280;37131;42.694;23.350;2023-03-14T06:35:49;95594.25;;;1.48;71.65
51083;BME280;37131;42.694;23.350;2023-03-14T06:38:14;95589.91;;;1.56;71.99
51083;BME280;37131;42.694;23.350;2023-03-14T06:40:40;95577.72;;;1.58;71.23
51083;BME280;37131;42.694;23.350;2023-03-14T06:43:05;95580.94;;;1.69;69.88
51083;BME280;37131;42.694;23.350;2023-03-14T06:45:30;95580.75;;;1.70;68.15
51083;BME280;37131;42.694;23.350;2023-03-14T06:47:55;95578.97;;;1.71;69.07
51083;BME280;37131;42.694;23.350;2023-03-14T06:50:21;95575.47;;;1.88;69.34
51083;BME280;37131;42.694;23.350;2023-03-14T06:52:47;95565.97;;;1.89;68.67
51083;BME280;37131;42.694;23.350;2023-03-14T06:55:13;95557.13;;;1.91;67.98
51083;BME280;37131;42.694;23.350;2023-03-14T06:57:38;95562.78;;;1.95;67.67
51083;BME280;37131;42.694;23.350;2023-03-14T07:00:04;95557.94;;;2.08;68.32
51083;BME280;37131;42.694;23.350;2023-03-14T07:02:30;95545.50;;;2.28;67.22
51083;BME280;37131;42.694;23.350;2023-03-14T07:04:55;95545.09;;;2.56;66.52
51083;BME280;37131;42.694;23.350;2023-03-14T07:07:20;95537.53;;;2.63;65.34
51083;BME280;37131;42.694;23.350;2023-03-14T07:09:45;95542.53;;;2.56;65.08
51083;BME280;37131;42.694;23.350;2023-03-14T07:12:10;95531.97;;;2.74;65.25
51083;BME280;37131;42.694;23.350;2023-03-14T07:14:36;95535.31;;;2.83;64.46
51083;BME280;37131;42.694;23.350;2023-03-14T07:17:01;95532.25;;;2.88;63.51
51083;BME280;37131;42.694;23.350;2023-03-14T07:19:26;95535.16;;;3.16;63.08
51083;BME280;37131;42.694;23.350;2023-03-14T07:21:51;95535.00;;;3.18;58.91
51083;BME280;37131;42.694;23.350;2023-03-14T07:24:17;95533.00;;;3.28;58.02
51083;BME280;37131;42.694;23.350;2023-03-14T07:26:42;95536.34;;;3.05;58.69
51083;BME280;37131;42.694;23.350;2023-03-14T07:29:07;95534.09;;;3.02;58.18
51083;BME280;37131;42.694;23.350;2023-03-14T07:31:33;95535.16;;;3.16;59.56
51083;BME280;37131;42.694;23.350;2023-03-14T07:33:58;95528.34;;;3.23;57.78
51083;BME280;37131;42.694;23.350;2023-03-14T07:36:23;95520.09;;;3.51;58.40
51083;BME280;37131;42.694;23.350;2023-03-14T07:38:49;95518.50;;;3.50;56.38
51083;BME280;37131;42.694;23.350;2023-03-14T07:41:14;95511.72;;;3.72;57.83
51083;BME280;37131;42.694;23.350;2023-03-14T07:43:40;95520.59;;;3.69;56.58
51083;BME280;37131;42.694;23.350;2023-03-14T07:46:05;95511.91;;;3.71;56.57
51083;BME280;37131;42.694;23.350;2023-03-14T07:48:30;95509.41;;;3.77;55.56
51083;BME280;37131;42.694;23.350;2023-03-14T07:50:56;95497.59;;;3.83;55.53
51083;BME280;37131;42.694;23.350;2023-03-14T07:53:21;95505.53;;;3.96;55.36
51083;BME280;37131;42.694;23.350;2023-03-14T07:55:47;95507.41;;;4.02;54.36
51083;BME280;37131;42.694;23.350;2023-03-14T07:58:13;95494.63;;;4.39;54.37
51083;BME280;37131;42.694;23.350;2023-03-14T08:00:38;95495.22;;;4.56;53.59
51083;BME280;37131;42.694;23.350;2023-03-14T08:03:04;95493.28;;;4.43;53.12
51083;BME280;37131;42.694;23.350;2023-03-14T08:05:29;95491.13;;;4.47;51.65
51083;BME280;37131;42.694;23.350;2023-03-14T08:07:54;95494.16;;;4.20;51.74
51083;BME280;37131;42.694;23.350;2023-03-14T08:10:20;95499.50;;;4.34;50.86
51083;BME280;37131;42.694;23.350;2023-03-14T08:12:51;95493.47;;;4.42;51.52
51083;BME280;37131;42.694;23.350;2023-03-14T08:15:18;95493.28;;;4.58;50.75
51083;BME280;37131;42.694;23.350;2023-03-14T08:17:44;95490.56;;;4.66;51.74
51083;BME280;37131;42.694;23.350;2023-03-14T08:20:09;95494.50;;;4.77;49.74
51083;BME280;37131;42.694;23.350;2023-03-14T08:22:36;95489.59;;;5.04;49.93
51083;BME280;37131;42.694;23.350;2023-03-14T08:25:01;95490.34;;;5.19;49.60
51083;BME280;37131;42.694;23.350;2023-03-14T08:27:27;95487.03;;;5.04;50.33
51083;BME280;37131;42.694;23.350;2023-03-14T08:29:52;95485.13;;;5.34;50.33
51083;BME280;37131;42.694;23.350;2023-03-14T08:32:17;95480.97;;;4.97;49.10
51083;BME280;37131;42.694;23.350;2023-03-14T08:34:45;95478.53;;;5.32;48.33
51083;BME280;37131;42.694;23.350;2023-03-14T08:37:10;95478.28;;;5.05;48.98
51083;BME280;37131;42.694;23.350;2023-03-14T08:39:35;95470.28;;;5.43;48.94
51083;BME280;37131;42.694;23.350;2023-03-14T08:42:00;95477.16;;;5.57;46.98
51083;BME280;37131;42.694;23.350;2023-03-14T08:44:25;95462.69;;;5.63;46.42
51083;BME280;37131;42.694;23.350;2023-03-14T08:46:51;95448.91;;;5.84;46.54
51083;BME280;37131;42.694;23.350;2023-03-14T08:49:16;95451.88;;;5.81;46.95
51083;BME280;37131;42.694;23.350;2023-03-14T08:51:41;95446.16;;;6.21;46.00
51083;BME280;37131;42.694;23.350;2023-03-14T08:54:09;95438.53;;;6.12;46.10
51083;BME280;37131;42.694;23.350;2023-03-14T08:56:34;95437.06;;;5.96;45.44
51083;BME280;37131;42.694;23.350;2023-03-14T08:59:02;95432.81;;;5.89;45.88
51083;BME280;37131;42.694;23.350;2023-03-14T09:01:28;95420.44;;;5.84;46.32
51083;BME280;37131;42.694;23.350;2023-03-14T09:03:53;95415.09;;;6.21;44.27
51083;BME280;37131;42.694;23.350;2023-03-14T09:06:18;95404.91;;;6.67;45.71
51083;BME280;37131;42.694;23.350;2023-03-14T09:08:43;95403.38;;;7.07;43.56
51083;BME280;37131;42.694;23.350;2023-03-14T09:11:09;95400.56;;;6.81;43.83
51083;BME280;37131;42.694;23.350;2023-03-14T09:13:34;95396.59;;;7.06;43.54
51083;BME280;37131;42.694;23.350;2023-03-14T09:16:00;95383.84;;;7.24;43.60
51083;BME280;37131;42.694;23.350;2023-03-14T09:18:25;95385.84;;;7.15;44.15
51083;BME280;37131;42.694;23.350;2023-03-14T09:20:51;95378.06;;;7.62;44.08
51083;BME280;37131;42.694;23.350;2023-03-14T09:23:16;95371.56;;;8.05;42.16
51083;BME280;37131;42.694;23.350;2023-03-14T09:25:41;95368.94;;;8.12;41.10
51083;BME280;37131;42.694;23.350;2023-03-14T09:28:06;95364.56;;;8.05;41.46
51083;BME280;37131;42.694;23.350;2023-03-14T09:30:32;95361.72;;;8.20;42.52
51083;BME280;37131;42.694;23.350;2023-03-14T09:32:57;95357.22;;;8.41;42.01
51083;BME280;37131;42.694;23.350;2023-03-14T09:35:23;95351.78;;;8.04;42.23
51083;BME280;37131;42.694;23.350;2023-03-14T09:37:49;95349.03;;;7.99;42.10
51083;BME280;37131;42.694;23.350;2023-03-14T09:40:15;95343.72;;;8.25;42.18
51083;BME280;37131;42.694;23.350;2023-03-14T09:42:42;95338.84;;;8.49;41.52
51083;BME280;37131;42.694;23.350;2023-03-14T09:45:27;95327.88;;;8.79;40.20
51083;BME280;37131;42.694;23.350;2023-03-14T09:47:53;95325.78;;;8.63;38.86
51083;BME280;37131;42.694;23.350;2023-03-14T09:50:18;95312.63;;;9.08;40.00
51083;BME280;37131;42.694;23.350;2023-03-14T09:52:45;95304.03;;;9.33;39.59
51083;BME280;37131;42.694;23.350;2023-03-14T09:55:16;95306.44;;;9.53;38.85
51083;BME280;37131;42.694;23.350;2023-03-14T09:57:42;95290.25;;;9.69;39.18
51083;BME280;37131;42.694;23.350;2023-03-14T10:00:17;95293.78;;;10.12;39.30
51083;BME280;37131;42.694;23.350;2023-03-14T10:02:45;95283.25;;;9.88;38.37
51083;BME280;37131;42.694;23.350;2023-03-14T10:05:16;95278.03;;;9.70;39.86
51083;BME280;37131;42.694;23.350;2023-03-14T10:07:42;95271.22;;;10.06;37.43
51083;BME280;37131;42.694;23.350;2023-03-14T10:10:11;95263.94;;;10.57;38.70
51083;BME280;37131;42.694;23.350;2023-03-14T10:12:37;95261.38;;;10.92;38.41
51083;BME280;37131;42.694;23.350;2023-03-14T10:15:08;95262.13;;;10.57;36.31
51083;BME280;37131;42.694;23.350;2023-03-14T10:17:41;95251.66;;;10.99;36.68
51083;BME280;37131;42.694;23.350;2023-03-14T10:20:14;95243.94;;;11.04;39.20
51083;BME280;37131;42.694;23.350;2023-03-14T10:22:52;95236.13;;;11.28;39.32
51083;BME280;37131;42.694;23.350;2023-03-14T10:25:26;95226.69;;;11.27;37.91
51083;BME280;37131;42.694;23.350;2023-03-14T10:27:51;95226.31;;;11.59;38.11
51083;BME280;37131;42.694;23.350;2023-03-14T10:30:27;95218.72;;;11.98;38.06
51083;BME280;37131;42.694;23.350;2023-03-14T10:32:53;95209.66;;;12.18;36.25
51083;BME280;37131;42.694;23.350;2023-03-14T10:35:19;95204.16;;;12.02;35.78
51083;BME280;37131;42.694;23.350;2023-03-14T10:37:49;95195.19;;;11.98;36.97
51083;BME280;37131;42.694;23.350;2023-03-14T10:40:14;95192.41;;;12.17;36.16
51083;BME280;37131;42.694;23.350;2023-03-14T10:42:41;95179.72;;;12.08;38.28
51083;BME280;37131;42.694;23.350;2023-03-14T10:47:50;95159.16;;;12.63;37.62
51083;BME280;37131;42.694;23.350;2023-03-14T10:50:26;95149.06;;;12.72;36.36
51083;BME280;37131;42.694;23.350;2023-03-14T10:52:52;95136.72;;;12.67;36.53
51083;BME280;37131;42.694;23.350;2023-03-14T10:55:17;95132.19;;;12.11;37.39
51083;BME280;37131;42.694;23.350;2023-03-14T10:57:43;95132.59;;;12.54;36.07
51083;BME280;37131;42.694;23.350;2023-03-14T11:00:21;95127.13;;;12.56;37.10
51083;BME280;37131;42.694;23.350;2023-03-14T11:02:49;95123.97;;;12.93;35.66
51083;BME280;37131;42.694;23.350;2023-03-14T11:07:45;95113.03;;;12.96;35.36
51083;BME280;37131;42.694;23.350;2023-03-14T11:15:29;95085.97;;;13.51;35.23
51083;BME280;37131;42.694;23.350;2023-03-14T11:23:51;95072.34;;;13.05;35.44
51083;BME280;37131;42.694;23.350;2023-03-14T11:28:49;95046.31;;;13.43;34.77
51083;BME280;37131;42.694;23.350;2023-03-14T11:31:24;95041.94;;;13.48;34.51
51083;BME280;37131;42.694;23.350;2023-03-14T11:33:56;95040.53;;;13.68;33.38
51083;BME280;37131;42.694;23.350;2023-03-14T11:36:38;95028.72;;;13.65;33.92
51083;BME280;37131;42.694;23.350;2023-03-14T11:39:07;95028.28;;;14.06;33.24
51083;BME280;37131;42.694;23.350;2023-03-14T11:41:38;95021.78;;;14.14;33.41
51083;BME280;37131;42.694;23.350;2023-03-14T11:44:07;95013.16;;;13.81;34.15
51083;BME280;37131;42.694;23.350;2023-03-14T11:46:39;95010.44;;;14.03;33.26
51083;BME280;37131;42.694;23.350;2023-03-14T11:51:39;94997.84;;;14.48;32.07
51083;BME280;37131;42.694;23.350;2023-03-14T11:56:37;94986.28;;;14.91;32.29
51083;BME280;37131;42.694;23.350;2023-03-14T11:59:10;94975.88;;;15.38;31.96
51083;BME280;37131;42.694;23.350;2023-03-14T12:01:47;94975.38;;;15.36;31.24
51083;BME280;37131;42.694;23.350;2023-03-14T12:04:22;94965.13;;;15.60;29.90
51083;BME280;37131;42.694;23.350;2023-03-14T12:06:54;94957.50;;;16.10;29.80
51083;BME280;37131;42.694;23.350;2023-03-14T12:09:21;94948.84;;;16.04;28.76
51083;BME280;37131;42.694;23.350;2023-03-14T12:14:46;94939.44;;;16.74;28.15
51083;BME280;37131;42.694;23.350;2023-03-14T12:19:41;94927.19;;;16.38;28.52
51083;BME280;37131;42.694;23.350;2023-03-14T12:24:33;94915.19;;;16.77;28.01
51083;BME280;37131;42.694;23.350;2023-03-14T12:27:00;94907.16;;;17.77;28.32
51083;BME280;37131;42.694;23.350;2023-03-14T12:29:26;94898.22;;;18.99;26.82
51083;BME280;37131;42.694;23.350;2023-03-14T12:34:26;94892.06;;;18.60;25.94
51083;BME280;37131;42.694;23.350;2023-03-14T12:42:05;94887.56;;;17.59;26.23
51083;BME280;37131;42.694;23.350;2023-03-14T12:44:41;94883.22;;;17.39;26.88
51083;BME280;37131;42.694;23.350;2023-03-14T12:49:48;94884.56;;;16.41;27.97
51083;BME280;37131;42.694;23.350;2023-03-14T12:52:15;94875.88;;;16.36;28.10
51083;BME280;37131;42.694;23.350;2023-03-14T12:59:47;94855.34;;;17.32;27.48
51083;BME280;37131;42.694;23.350;2023-03-14T13:02:22;94855.03;;;17.68;26.35
51083;BME280;37131;42.694;23.350;2023-03-14T13:05:02;94842.56;;;18.28;25.40
51083;BME280;37131;42.694;23.350;2023-03-14T13:07:30;94842.41;;;18.62;25.12
51083;BME280;37131;42.694;23.350;2023-03-14T13:12:25;94828.59;;;20.16;24.64
51083;BME280;37131;42.694;23.350;2023-03-14T13:14:53;94821.19;;;20.68;23.44
51083;BME280;37131;42.694;23.350;2023-03-14T13:17:22;94822.97;;;19.76;23.05
51083;BME280;37131;42.694;23.350;2023-03-14T13:19:52;94817.31;;;19.36;24.85
51083;BME280;37131;42.694;23.350;2023-03-14T13:22:24;94816.47;;;19.54;25.00
51083;BME280;37131;42.694;23.350;2023-03-14T13:24:50;94814.38;;;18.47;24.71
51083;BME280;37131;42.694;23.350;2023-03-14T13:27:22;94812.00;;;18.46;25.91
51083;BME280;37131;42.694;23.350;2023-03-14T13:29:49;94795.75;;;18.96;24.69
51083;BME280;37131;42.694;23.350;2023-03-14T13:32:17;94790.84;;;19.22;22.95
51083;BME280;37131;42.694;23.350;2023-03-14T13:34:42;94780.31;;;19.50;24.56
51083;BME280;37131;42.694;23.350;2023-03-14T13:37:15;94778.41;;;19.22;24.48
51083;BME280;37131;42.694;23.350;2023-03-14T13:39:40;94773.16;;;19.50;23.46
51083;BME280;37131;42.694;23.350;2023-03-14T13:42:10;94777.38;;;18.09;24.09
51083;BME280;37131;42.694;23.350;2023-03-14T13:44:38;94767.59;;;17.61;25.11
51083;BME280;37131;42.694;23.350;2023-03-14T13:47:05;94765.31;;;18.03;26.56
51083;BME280;37131;42.694;23.350;2023-03-14T13:49:31;94761.28;;;18.30;24.24
51083;BME280;37131;42.694;23.350;2023-03-14T13:52:00;94756.59;;;18.02;24.52